ESPA

Luleå Airport

Luleå, Sweden
METAR ESPA 200050Z AUTO 36004KT 320V030 9999 -SG VV006 M15/M16 Q1011
Observed Flight Rules
Jan-20 @ 00:50 UTC (28 minutes ago) Instrument Flight Rules
Wind Visibility Clouds Conditions
360° at 4 knots 10,000+ meters
  • Vertical visibility at 600' AGL
  • Light Snow grains
Temperatures Readings
Current -15°C / 5°F
Dewpoint -16°C / 3°F
Humidity 92%
Altimeter 29.85" Hg
Pressure 1011 hPa
Elevation 34
METAR ESPA 200050Z AUTO 36004KT 320V030 9999 -SG VV006 M15/M16 Q1011
Observed Flight Rules
Jan-20 @ 00:50 UTC
(28 minutes ago)
LIFR
Wind Visibility
360° at 4 knots 10,000+ meters
Clouds
  • Vertical visibility at 600' AGL
Conditions
  • Light Snow grains
Temperature Dewpoint
-15°C / 5°F -16°C / 3°F
Humidity Altimeter Pressure
92% 29.85" Hg 1011 hPa